sensor_id;sensor_type;location;lat;lon;timestamp;P1;durP1;ratioP1;P2;durP2;ratioP2
28431;SDS011;15664;51.302;7.744;2023-02-01T00:02:22;19.27;;;7.60;;
28431;SDS011;15664;51.302;7.744;2023-02-01T00:04:47;21.23;;;5.80;;
28431;SDS011;15664;51.302;7.744;2023-02-01T00:07:13;27.75;;;8.30;;
28431;SDS011;15664;51.302;7.744;2023-02-01T00:09:39;16.80;;;6.53;;
28431;SDS011;15664;51.302;7.744;2023-02-01T00:12:05;16.35;;;6.50;;
28431;SDS011;15664;51.302;7.744;2023-02-01T00:14:31;22.17;;;6.43;;
28431;SDS011;15664;51.302;7.744;2023-02-01T00:17:06;13.98;;;5.15;;
28431;SDS011;15664;51.302;7.744;2023-02-01T00:19:33;17.33;;;5.80;;
28431;SDS011;15664;51.302;7.744;2023-02-01T00:21:59;23.27;;;6.65;;
28431;SDS011;15664;51.302;7.744;2023-02-01T00:24:24;30.93;;;9.90;;
28431;SDS011;15664;51.302;7.744;2023-02-01T00:26:50;19.05;;;6.30;;
28431;SDS011;15664;51.302;7.744;2023-02-01T00:29:17;24.63;;;8.03;;
28431;SDS011;15664;51.302;7.744;2023-02-01T00:31:44;18.73;;;7.18;;
28431;SDS011;15664;51.302;7.744;2023-02-01T00:34:13;15.65;;;4.63;;
28431;SDS011;15664;51.302;7.744;2023-02-01T00:36:41;15.20;;;5.38;;
28431;SDS011;15664;51.302;7.744;2023-02-01T00:39:08;11.30;;;4.17;;
28431;SDS011;15664;51.302;7.744;2023-02-01T00:41:34;12.70;;;3.70;;
28431;SDS011;15664;51.302;7.744;2023-02-01T00:44:00;23.35;;;4.45;;
28431;SDS011;15664;51.302;7.744;2023-02-01T00:46:26;11.45;;;4.90;;
28431;SDS011;15664;51.302;7.744;2023-02-01T00:48:53;14.63;;;4.60;;
28431;SDS011;15664;51.302;7.744;2023-02-01T00:51:20;11.02;;;3.92;;
28431;SDS011;15664;51.302;7.744;2023-02-01T00:53:47;13.10;;;3.28;;
28431;SDS011;15664;51.302;7.744;2023-02-01T00:56:13;11.77;;;3.57;;
28431;SDS011;15664;51.302;7.744;2023-02-01T00:58:39;12.63;;;4.05;;
28431;SDS011;15664;51.302;7.744;2023-02-01T01:01:07;17.52;;;5.38;;
28431;SDS011;15664;51.302;7.744;2023-02-01T01:03:40;13.48;;;2.90;;
28431;SDS011;15664;51.302;7.744;2023-02-01T01:06:09;10.43;;;2.90;;
28431;SDS011;15664;51.302;7.744;2023-02-01T01:08:36;12.85;;;3.50;;
28431;SDS011;15664;51.302;7.744;2023-02-01T01:11:06;15.90;;;3.05;;
28431;SDS011;15664;51.302;7.744;2023-02-01T01:13:40;8.43;;;2.58;;
28431;SDS011;15664;51.302;7.744;2023-02-01T01:16:07;10.68;;;2.28;;
28431;SDS011;15664;51.302;7.744;2023-02-01T01:18:34;8.20;;;2.80;;
28431;SDS011;15664;51.302;7.744;2023-02-01T01:21:00;8.95;;;2.38;;
28431;SDS011;15664;51.302;7.744;2023-02-01T01:23:26;12.32;;;2.58;;
28431;SDS011;15664;51.302;7.744;2023-02-01T01:25:52;10.63;;;2.90;;
28431;SDS011;15664;51.302;7.744;2023-02-01T01:28:18;11.20;;;2.63;;
28431;SDS011;15664;51.302;7.744;2023-02-01T01:30:44;11.83;;;2.27;;
28431;SDS011;15664;51.302;7.744;2023-02-01T01:33:09;5.47;;;1.90;;
28431;SDS011;15664;51.302;7.744;2023-02-01T01:35:35;15.55;;;3.05;;
28431;SDS011;15664;51.302;7.744;2023-02-01T01:38:02;12.27;;;3.13;;
28431;SDS011;15664;51.302;7.744;2023-02-01T01:40:28;7.63;;;2.07;;
28431;SDS011;15664;51.302;7.744;2023-02-01T01:42:55;10.60;;;3.25;;
28431;SDS011;15664;51.302;7.744;2023-02-01T01:45:24;8.07;;;2.80;;
28431;SDS011;15664;51.302;7.744;2023-02-01T01:47:58;10.50;;;3.35;;
28431;SDS011;15664;51.302;7.744;2023-02-01T01:50:29;10.48;;;3.00;;
28431;SDS011;15664;51.302;7.744;2023-02-01T01:52:58;8.00;;;2.83;;
28431;SDS011;15664;51.302;7.744;2023-02-01T01:55:27;13.85;;;2.92;;
28431;SDS011;15664;51.302;7.744;2023-02-01T01:58:05;11.35;;;4.10;;
28431;SDS011;15664;51.302;7.744;2023-02-01T02:00:32;9.15;;;3.20;;
28431;SDS011;15664;51.302;7.744;2023-02-01T02:02:59;6.57;;;2.13;;
28431;SDS011;15664;51.302;7.744;2023-02-01T02:05:37;19.27;;;5.30;;
28431;SDS011;15664;51.302;7.744;2023-02-01T02:08:03;12.43;;;3.47;;
28431;SDS011;15664;51.302;7.744;2023-02-01T02:10:28;11.50;;;3.77;;
28431;SDS011;15664;51.302;7.744;2023-02-01T02:13:14;15.50;;;4.20;;
28431;SDS011;15664;51.302;7.744;2023-02-01T02:15:43;14.85;;;3.92;;
28431;SDS011;15664;51.302;7.744;2023-02-01T02:18:19;12.53;;;4.17;;
28431;SDS011;15664;51.302;7.744;2023-02-01T02:32:21;9.43;;;3.07;;
28431;SDS011;15664;51.302;7.744;2023-02-01T02:35:02;9.52;;;3.25;;
28431;SDS011;15664;51.302;7.744;2023-02-01T02:37:42;17.80;;;4.32;;
28431;SDS011;15664;51.302;7.744;2023-02-01T02:40:26;15.65;;;4.65;;
28431;SDS011;15664;51.302;7.744;2023-02-01T02:43:10;11.90;;;3.30;;
28431;SDS011;15664;51.302;7.744;2023-02-01T02:46:14;14.00;;;3.10;;
28431;SDS011;15664;51.302;7.744;2023-02-01T02:49:09;14.77;;;3.70;;
28431;SDS011;15664;51.302;7.744;2023-02-01T02:51:49;18.55;;;5.53;;
28431;SDS011;15664;51.302;7.744;2023-02-01T02:54:41;13.93;;;2.75;;
28431;SDS011;15664;51.302;7.744;2023-02-01T02:57:34;9.40;;;2.92;;
28431;SDS011;15664;51.302;7.744;2023-02-01T03:00:30;7.20;;;1.93;;
28431;SDS011;15664;51.302;7.744;2023-02-01T03:03:16;10.40;;;2.88;;
28431;SDS011;15664;51.302;7.744;2023-02-01T03:06:01;19.13;;;2.72;;
28431;SDS011;15664;51.302;7.744;2023-02-01T03:08:28;15.57;;;2.40;;
28431;SDS011;15664;51.302;7.744;2023-02-01T03:13:49;9.77;;;1.70;;
28431;SDS011;15664;51.302;7.744;2023-02-01T03:19:11;6.70;;;2.25;;
28431;SDS011;15664;51.302;7.744;2023-02-01T03:21:43;13.95;;;2.90;;
28431;SDS011;15664;51.302;7.744;2023-02-01T03:24:18;10.20;;;1.90;;
28431;SDS011;15664;51.302;7.744;2023-02-01T03:26:49;15.33;;;2.97;;
28431;SDS011;15664;51.302;7.744;2023-02-01T03:29:21;16.65;;;2.20;;
28431;SDS011;15664;51.302;7.744;2023-02-01T03:31:51;11.50;;;2.42;;
28431;SDS011;15664;51.302;7.744;2023-02-01T03:34:16;8.18;;;2.08;;
28431;SDS011;15664;51.302;7.744;2023-02-01T03:36:46;11.00;;;2.07;;
28431;SDS011;15664;51.302;7.744;2023-02-01T03:41:56;8.52;;;2.00;;
28431;SDS011;15664;51.302;7.744;2023-02-01T03:44:32;13.98;;;2.95;;
28431;SDS011;15664;51.302;7.744;2023-02-01T03:47:04;8.07;;;2.10;;
28431;SDS011;15664;51.302;7.744;2023-02-01T03:49:39;8.32;;;2.17;;
28431;SDS011;15664;51.302;7.744;2023-02-01T03:52:09;10.20;;;2.00;;
28431;SDS011;15664;51.302;7.744;2023-02-01T03:54:41;8.88;;;1.77;;
28431;SDS011;15664;51.302;7.744;2023-02-01T03:57:10;9.13;;;1.73;;
28431;SDS011;15664;51.302;7.744;2023-02-01T03:59:43;8.97;;;2.33;;
28431;SDS011;15664;51.302;7.744;2023-02-01T04:02:10;13.55;;;2.63;;
28431;SDS011;15664;51.302;7.744;2023-02-01T04:04:35;7.28;;;1.55;;
28431;SDS011;15664;51.302;7.744;2023-02-01T04:07:02;9.90;;;2.50;;
28431;SDS011;15664;51.302;7.744;2023-02-01T04:09:29;10.85;;;2.28;;
28431;SDS011;15664;51.302;7.744;2023-02-01T04:11:54;8.77;;;1.80;;
28431;SDS011;15664;51.302;7.744;2023-02-01T04:14:20;6.33;;;1.90;;
28431;SDS011;15664;51.302;7.744;2023-02-01T04:16:45;8.90;;;1.80;;
28431;SDS011;15664;51.302;7.744;2023-02-01T04:19:11;9.20;;;1.97;;
28431;SDS011;15664;51.302;7.744;2023-02-01T04:21:36;7.63;;;2.03;;
28431;SDS011;15664;51.302;7.744;2023-02-01T04:24:02;8.33;;;1.67;;
28431;SDS011;15664;51.302;7.744;2023-02-01T04:26:28;14.73;;;2.70;;
28431;SDS011;15664;51.302;7.744;2023-02-01T04:28:53;11.97;;;2.40;;
28431;SDS011;15664;51.302;7.744;2023-02-01T04:31:19;7.57;;;2.20;;
28431;SDS011;15664;51.302;7.744;2023-02-01T04:33:54;7.60;;;2.47;;
28431;SDS011;15664;51.302;7.744;2023-02-01T04:36:22;14.30;;;2.25;;
28431;SDS011;15664;51.302;7.744;2023-02-01T04:38:48;5.30;;;1.50;;
28431;SDS011;15664;51.302;7.744;2023-02-01T04:41:14;9.43;;;2.37;;
28431;SDS011;15664;51.302;7.744;2023-02-01T04:43:46;10.80;;;2.30;;
28431;SDS011;15664;51.302;7.744;2023-02-01T04:46:13;5.30;;;1.52;;
28431;SDS011;15664;51.302;7.744;2023-02-01T04:48:38;9.30;;;2.10;;
28431;SDS011;15664;51.302;7.744;2023-02-01T04:51:04;11.80;;;2.90;;
28431;SDS011;15664;51.302;7.744;2023-02-01T04:53:30;7.47;;;2.13;;
28431;SDS011;15664;51.302;7.744;2023-02-01T04:55:56;12.70;;;2.25;;
28431;SDS011;15664;51.302;7.744;2023-02-01T04:58:21;8.33;;;2.13;;
28431;SDS011;15664;51.302;7.744;2023-02-01T05:00:47;9.70;;;1.67;;
28431;SDS011;15664;51.302;7.744;2023-02-01T05:03:13;5.70;;;1.63;;
28431;SDS011;15664;51.302;7.744;2023-02-01T05:05:38;14.23;;;2.13;;
28431;SDS011;15664;51.302;7.744;2023-02-01T05:08:04;6.97;;;1.75;;
28431;SDS011;15664;51.302;7.744;2023-02-01T05:10:29;16.37;;;2.80;;
28431;SDS011;15664;51.302;7.744;2023-02-01T05:12:55;7.55;;;1.85;;
28431;SDS011;15664;51.302;7.744;2023-02-01T05:15:39;7.85;;;2.70;;
28431;SDS011;15664;51.302;7.744;2023-02-01T05:18:05;10.27;;;2.75;;
28431;SDS011;15664;51.302;7.744;2023-02-01T05:20:30;7.10;;;2.27;;
28431;SDS011;15664;51.302;7.744;2023-02-01T05:22:56;9.53;;;2.40;;
28431;SDS011;15664;51.302;7.744;2023-02-01T05:25:21;17.05;;;3.67;;
28431;SDS011;15664;51.302;7.744;2023-02-01T05:27:47;15.67;;;3.73;;
28431;SDS011;15664;51.302;7.744;2023-02-01T05:30:12;14.17;;;2.77;;
28431;SDS011;15664;51.302;7.744;2023-02-01T05:32:39;15.35;;;3.72;;
28431;SDS011;15664;51.302;7.744;2023-02-01T05:35:04;12.60;;;3.23;;
28431;SDS011;15664;51.302;7.744;2023-02-01T05:37:30;17.80;;;3.95;;
28431;SDS011;15664;51.302;7.744;2023-02-01T05:39:56;12.90;;;4.03;;
28431;SDS011;15664;51.302;7.744;2023-02-01T05:42:21;10.07;;;3.58;;
28431;SDS011;15664;51.302;7.744;2023-02-01T05:44:47;9.57;;;2.77;;
28431;SDS011;15664;51.302;7.744;2023-02-01T05:47:12;10.00;;;3.83;;
28431;SDS011;15664;51.302;7.744;2023-02-01T05:49:38;11.73;;;3.57;;
28431;SDS011;15664;51.302;7.744;2023-02-01T05:52:04;11.82;;;3.47;;
28431;SDS011;15664;51.302;7.744;2023-02-01T05:54:29;8.60;;;3.05;;
28431;SDS011;15664;51.302;7.744;2023-02-01T05:56:55;8.47;;;2.83;;
28431;SDS011;15664;51.302;7.744;2023-02-01T05:59:20;15.73;;;5.30;;
28431;SDS011;15664;51.302;7.744;2023-02-01T06:01:46;10.30;;;3.97;;
28431;SDS011;15664;51.302;7.744;2023-02-01T06:04:11;15.03;;;4.10;;
28431;SDS011;15664;51.302;7.744;2023-02-01T06:06:37;14.10;;;3.30;;
28431;SDS011;15664;51.302;7.744;2023-02-01T06:09:03;12.57;;;4.47;;
28431;SDS011;15664;51.302;7.744;2023-02-01T06:11:29;17.13;;;5.65;;
28431;SDS011;15664;51.302;7.744;2023-02-01T06:13:55;13.43;;;3.72;;
28431;SDS011;15664;51.302;7.744;2023-02-01T06:16:21;8.97;;;3.40;;
28431;SDS011;15664;51.302;7.744;2023-02-01T06:18:47;18.88;;;3.75;;
28431;SDS011;15664;51.302;7.744;2023-02-01T06:21:13;12.35;;;3.75;;
28431;SDS011;15664;51.302;7.744;2023-02-01T06:23:41;8.73;;;3.42;;
28431;SDS011;15664;51.302;7.744;2023-02-01T06:26:06;20.13;;;4.47;;
28431;SDS011;15664;51.302;7.744;2023-02-01T06:28:35;11.15;;;4.07;;
28431;SDS011;15664;51.302;7.744;2023-02-01T06:31:04;13.00;;;4.00;;
28431;SDS011;15664;51.302;7.744;2023-02-01T06:33:34;9.00;;;3.55;;
28431;SDS011;15664;51.302;7.744;2023-02-01T06:36:01;16.40;;;4.70;;
28431;SDS011;15664;51.302;7.744;2023-02-01T06:38:28;10.73;;;3.20;;
28431;SDS011;15664;51.302;7.744;2023-02-01T06:40:55;11.73;;;3.28;;
28431;SDS011;15664;51.302;7.744;2023-02-01T06:43:22;17.13;;;4.50;;
28431;SDS011;15664;51.302;7.744;2023-02-01T06:45:50;14.43;;;3.63;;
28431;SDS011;15664;51.302;7.744;2023-02-01T06:48:15;12.48;;;3.78;;
28431;SDS011;15664;51.302;7.744;2023-02-01T06:50:41;14.27;;;4.00;;
28431;SDS011;15664;51.302;7.744;2023-02-01T06:53:06;10.60;;;4.27;;
28431;SDS011;15664;51.302;7.744;2023-02-01T06:55:32;13.30;;;4.73;;
28431;SDS011;15664;51.302;7.744;2023-02-01T06:57:58;12.27;;;3.55;;
28431;SDS011;15664;51.302;7.744;2023-02-01T07:00:23;11.57;;;2.73;;
28431;SDS011;15664;51.302;7.744;2023-02-01T07:02:49;11.73;;;3.00;;
28431;SDS011;15664;51.302;7.744;2023-02-01T07:05:16;8.38;;;3.40;;
28431;SDS011;15664;51.302;7.744;2023-02-01T07:07:42;11.90;;;4.07;;
28431;SDS011;15664;51.302;7.744;2023-02-01T07:10:08;13.90;;;3.40;;
28431;SDS011;15664;51.302;7.744;2023-02-01T07:12:34;12.27;;;4.28;;
28431;SDS011;15664;51.302;7.744;2023-02-01T07:15:00;10.10;;;3.33;;
28431;SDS011;15664;51.302;7.744;2023-02-01T07:17:28;18.75;;;5.50;;
28431;SDS011;15664;51.302;7.744;2023-02-01T07:19:54;12.25;;;3.50;;
28431;SDS011;15664;51.302;7.744;2023-02-01T07:22:21;14.50;;;5.07;;
28431;SDS011;15664;51.302;7.744;2023-02-01T07:24:46;15.63;;;4.43;;
28431;SDS011;15664;51.302;7.744;2023-02-01T07:27:12;7.80;;;2.97;;
28431;SDS011;15664;51.302;7.744;2023-02-01T07:29:37;11.73;;;2.30;;
28431;SDS011;15664;51.302;7.744;2023-02-01T07:32:03;13.20;;;4.43;;
28431;SDS011;15664;51.302;7.744;2023-02-01T07:34:29;11.77;;;4.20;;
28431;SDS011;15664;51.302;7.744;2023-02-01T07:36:56;11.65;;;4.35;;
28431;SDS011;15664;51.302;7.744;2023-02-01T07:39:22;14.00;;;3.38;;
28431;SDS011;15664;51.302;7.744;2023-02-01T07:41:48;10.07;;;3.45;;
28431;SDS011;15664;51.302;7.744;2023-02-01T07:44:13;16.20;;;4.07;;
28431;SDS011;15664;51.302;7.744;2023-02-01T07:46:39;8.88;;;3.47;;
28431;SDS011;15664;51.302;7.744;2023-02-01T07:49:05;19.50;;;4.83;;
28431;SDS011;15664;51.302;7.744;2023-02-01T07:51:31;17.25;;;5.78;;
28431;SDS011;15664;51.302;7.744;2023-02-01T07:53:57;12.40;;;4.95;;
28431;SDS011;15664;51.302;7.744;2023-02-01T07:56:23;21.53;;;5.23;;
28431;SDS011;15664;51.302;7.744;2023-02-01T07:58:52;11.15;;;4.07;;
28431;SDS011;15664;51.302;7.744;2023-02-01T08:01:22;16.67;;;4.17;;
28431;SDS011;15664;51.302;7.744;2023-02-01T08:03:50;22.40;;;5.85;;
28431;SDS011;15664;51.302;7.744;2023-02-01T08:06:17;13.93;;;5.25;;
28431;SDS011;15664;51.302;7.744;2023-02-01T08:08:44;20.63;;;5.07;;
28431;SDS011;15664;51.302;7.744;2023-02-01T08:11:12;19.02;;;5.30;;
28431;SDS011;15664;51.302;7.744;2023-02-01T08:13:38;20.00;;;5.80;;
28431;SDS011;15664;51.302;7.744;2023-02-01T08:16:05;13.45;;;4.53;;
28431;SDS011;15664;51.302;7.744;2023-02-01T08:18:33;15.40;;;4.32;;
28431;SDS011;15664;51.302;7.744;2023-02-01T08:21:04;16.00;;;4.55;;
28431;SDS011;15664;51.302;7.744;2023-02-01T08:23:32;8.35;;;3.28;;
28431;SDS011;15664;51.302;7.744;2023-02-01T08:28:31;8.90;;;3.97;;
28431;SDS011;15664;51.302;7.744;2023-02-01T08:30:56;14.53;;;4.70;;
28431;SDS011;15664;51.302;7.744;2023-02-01T08:33:21;13.05;;;4.90;;
28431;SDS011;15664;51.302;7.744;2023-02-01T08:35:47;11.80;;;3.63;;
28431;SDS011;15664;51.302;7.744;2023-02-01T08:38:13;16.30;;;4.27;;
28431;SDS011;15664;51.302;7.744;2023-02-01T08:40:38;16.20;;;5.63;;
28431;SDS011;15664;51.302;7.744;2023-02-01T08:43:06;10.65;;;3.92;;
28431;SDS011;15664;51.302;7.744;2023-02-01T08:45:32;12.17;;;4.40;;
28431;SDS011;15664;51.302;7.744;2023-02-01T08:47:59;14.98;;;4.43;;
28431;SDS011;15664;51.302;7.744;2023-02-01T08:50:24;15.07;;;4.53;;
28431;SDS011;15664;51.302;7.744;2023-02-01T08:52:51;11.70;;;3.92;;
28431;SDS011;15664;51.302;7.744;2023-02-01T08:55:17;13.47;;;4.90;;
28431;SDS011;15664;51.302;7.744;2023-02-01T08:57:42;9.13;;;3.63;;
28431;SDS011;15664;51.302;7.744;2023-02-01T09:00:09;14.63;;;5.23;;
28431;SDS011;15664;51.302;7.744;2023-02-01T09:02:37;12.40;;;3.67;;
28431;SDS011;15664;51.302;7.744;2023-02-01T09:05:03;16.00;;;3.77;;
28431;SDS011;15664;51.302;7.744;2023-02-01T09:07:29;14.95;;;4.75;;
28431;SDS011;15664;51.302;7.744;2023-02-01T09:09:55;17.58;;;3.95;;
28431;SDS011;15664;51.302;7.744;2023-02-01T09:12:21;11.13;;;3.50;;
28431;SDS011;15664;51.302;7.744;2023-02-01T09:14:47;11.38;;;3.80;;
28431;SDS011;15664;51.302;7.744;2023-02-01T09:17:13;10.32;;;3.78;;
28431;SDS011;15664;51.302;7.744;2023-02-01T09:19:39;12.23;;;3.77;;
28431;SDS011;15664;51.302;7.744;2023-02-01T09:22:05;14.48;;;4.55;;
28431;SDS011;15664;51.302;7.744;2023-02-01T09:24:30;11.50;;;3.30;;
28431;SDS011;15664;51.302;7.744;2023-02-01T09:26:56;15.82;;;5.10;;
28431;SDS011;15664;51.302;7.744;2023-02-01T09:29:22;14.27;;;5.27;;
28431;SDS011;15664;51.302;7.744;2023-02-01T09:31:47;12.30;;;3.33;;
28431;SDS011;15664;51.302;7.744;2023-02-01T09:34:13;17.90;;;5.05;;
28431;SDS011;15664;51.302;7.744;2023-02-01T09:36:39;11.50;;;4.77;;
28431;SDS011;15664;51.302;7.744;2023-02-01T09:39:04;19.77;;;5.30;;
28431;SDS011;15664;51.302;7.744;2023-02-01T09:47:04;21.83;;;6.78;;
28431;SDS011;15664;51.302;7.744;2023-02-01T09:49:37;9.65;;;3.88;;
28431;SDS011;15664;51.302;7.744;2023-02-01T09:52:11;13.48;;;3.33;;
28431;SDS011;15664;51.302;7.744;2023-02-01T09:54:41;12.95;;;4.47;;
28431;SDS011;15664;51.302;7.744;2023-02-01T09:57:19;12.47;;;3.73;;
28431;SDS011;15664;51.302;7.744;2023-02-01T09:59:53;12.23;;;4.28;;
28431;SDS011;15664;51.302;7.744;2023-02-01T10:02:26;10.55;;;4.22;;
28431;SDS011;15664;51.302;7.744;2023-02-01T10:04:54;9.30;;;3.05;;
28431;SDS011;15664;51.302;7.744;2023-02-01T10:12:47;19.05;;;5.68;;
28431;SDS011;15664;51.302;7.744;2023-02-01T10:15:21;15.02;;;5.22;;
28431;SDS011;15664;51.302;7.744;2023-02-01T10:18:07;12.02;;;3.30;;
28431;SDS011;15664;51.302;7.744;2023-02-01T10:21:15;16.15;;;4.70;;
28431;SDS011;15664;51.302;7.744;2023-02-01T10:24:25;15.20;;;4.60;;
28431;SDS011;15664;51.302;7.744;2023-02-01T10:29:36;14.98;;;4.25;;
28431;SDS011;15664;51.302;7.744;2023-02-01T10:32:12;11.52;;;4.07;;
28431;SDS011;15664;51.302;7.744;2023-02-01T10:34:40;13.85;;;4.18;;
28431;SDS011;15664;51.302;7.744;2023-02-01T10:39:56;13.57;;;4.35;;
28431;SDS011;15664;51.302;7.744;2023-02-01T10:42:25;14.20;;;3.95;;
28431;SDS011;15664;51.302;7.744;2023-02-01T10:44:52;22.75;;;4.88;;
28431;SDS011;15664;51.302;7.744;2023-02-01T10:47:22;7.07;;;3.13;;
28431;SDS011;15664;51.302;7.744;2023-02-01T10:52:46;15.23;;;3.72;;
28431;SDS011;15664;51.302;7.744;2023-02-01T10:55:37;12.73;;;4.22;;
28431;SDS011;15664;51.302;7.744;2023-02-01T10:58:16;13.07;;;4.27;;
28431;SDS011;15664;51.302;7.744;2023-02-01T11:00:47;16.33;;;3.55;;
28431;SDS011;15664;51.302;7.744;2023-02-01T11:03:30;10.48;;;3.67;;
28431;SDS011;15664;51.302;7.744;2023-02-01T11:05:58;14.85;;;3.58;;
28431;SDS011;15664;51.302;7.744;2023-02-01T11:08:24;10.70;;;3.70;;
28431;SDS011;15664;51.302;7.744;2023-02-01T11:11:00;5.57;;;2.53;;
28431;SDS011;15664;51.302;7.744;2023-02-01T11:13:29;11.73;;;2.88;;
28431;SDS011;15664;51.302;7.744;2023-02-01T11:15:58;15.18;;;3.45;;
28431;SDS011;15664;51.302;7.744;2023-02-01T11:18:27;5.45;;;2.63;;
28431;SDS011;15664;51.302;7.744;2023-02-01T11:20:54;15.57;;;3.53;;
28431;SDS011;15664;51.302;7.744;2023-02-01T11:23:24;8.33;;;3.53;;
28431;SDS011;15664;51.302;7.744;2023-02-01T11:25:56;12.05;;;3.75;;
28431;SDS011;15664;51.302;7.744;2023-02-01T11:28:25;12.55;;;3.83;;
28431;SDS011;15664;51.302;7.744;2023-02-01T11:30:54;13.98;;;4.03;;
28431;SDS011;15664;51.302;7.744;2023-02-01T11:33:30;15.48;;;4.78;;
28431;SDS011;15664;51.302;7.744;2023-02-01T11:36:14;9.70;;;4.23;;
28431;SDS011;15664;51.302;7.744;2023-02-01T11:38:46;11.57;;;4.03;;
28431;SDS011;15664;51.302;7.744;2023-02-01T11:41:25;9.85;;;3.78;;
28431;SDS011;15664;51.302;7.744;2023-02-01T11:44:01;19.02;;;3.97;;
28431;SDS011;15664;51.302;7.744;2023-02-01T11:46:44;12.57;;;4.28;;
28431;SDS011;15664;51.302;7.744;2023-02-01T11:49:19;15.37;;;4.17;;
28431;SDS011;15664;51.302;7.744;2023-02-01T11:57:12;16.63;;;4.40;;
28431;SDS011;15664;51.302;7.744;2023-02-01T12:05:34;15.20;;;3.58;;
28431;SDS011;15664;51.302;7.744;2023-02-01T12:08:26;15.98;;;4.53;;
28431;SDS011;15664;51.302;7.744;2023-02-01T12:19:11;10.48;;;3.38;;
28431;SDS011;15664;51.302;7.744;2023-02-01T12:24:29;13.48;;;3.92;;
28431;SDS011;15664;51.302;7.744;2023-02-01T12:32:32;22.85;;;6.97;;
28431;SDS011;15664;51.302;7.744;2023-02-01T12:35:22;20.98;;;4.15;;
28431;SDS011;15664;51.302;7.744;2023-02-01T12:38:06;17.67;;;5.05;;
28431;SDS011;15664;51.302;7.744;2023-02-01T12:40:45;13.05;;;3.90;;
28431;SDS011;15664;51.302;7.744;2023-02-01T12:43:36;13.57;;;4.53;;
28431;SDS011;15664;51.302;7.744;2023-02-01T12:46:08;14.55;;;4.90;;
28431;SDS011;15664;51.302;7.744;2023-02-01T12:48:54;12.85;;;4.57;;
28431;SDS011;15664;51.302;7.744;2023-02-01T12:51:25;16.92;;;4.78;;
28431;SDS011;15664;51.302;7.744;2023-02-01T12:54:03;17.67;;;6.18;;
28431;SDS011;15664;51.302;7.744;2023-02-01T12:57:11;9.97;;;3.57;;
28431;SDS011;15664;51.302;7.744;2023-02-01T12:59:34;15.80;;;5.85;;
28431;SDS011;15664;51.302;7.744;2023-02-01T13:07:28;15.02;;;5.15;;
28431;SDS011;15664;51.302;7.744;2023-02-01T13:10:01;14.67;;;5.47;;
28431;SDS011;15664;51.302;7.744;2023-02-01T13:12:38;11.93;;;3.60;;
28431;SDS011;15664;51.302;7.744;2023-02-01T13:15:13;18.05;;;5.00;;
28431;SDS011;15664;51.302;7.744;2023-02-01T13:17:42;13.65;;;4.55;;
28431;SDS011;15664;51.302;7.744;2023-02-01T13:20:22;13.95;;;4.28;;
28431;SDS011;15664;51.302;7.744;2023-02-01T13:22:59;17.80;;;4.10;;
28431;SDS011;15664;51.302;7.744;2023-02-01T13:29:01;13.73;;;4.95;;
28431;SDS011;15664;51.302;7.744;2023-02-01T13:36:48;16.70;;;6.23;;
28431;SDS011;15664;51.302;7.744;2023-02-01T13:42:29;14.88;;;4.82;;
28431;SDS011;15664;51.302;7.744;2023-02-01T13:45:05;13.73;;;3.65;;
28431;SDS011;15664;51.302;7.744;2023-02-01T13:47:40;16.30;;;4.97;;
28431;SDS011;15664;51.302;7.744;2023-02-01T13:50:22;22.50;;;6.87;;
28431;SDS011;15664;51.302;7.744;2023-02-01T13:52:58;12.55;;;3.55;;
28431;SDS011;15664;51.302;7.744;2023-02-01T13:55:30;12.25;;;3.70;;
28431;SDS011;15664;51.302;7.744;2023-02-01T13:58:18;13.73;;;4.63;;
28431;SDS011;15664;51.302;7.744;2023-02-01T14:00:46;17.73;;;4.90;;
28431;SDS011;15664;51.302;7.744;2023-02-01T14:03:14;17.30;;;5.40;;
28431;SDS011;15664;51.302;7.744;2023-02-01T14:08:12;13.95;;;4.90;;
28431;SDS011;15664;51.302;7.744;2023-02-01T14:10:46;11.30;;;4.30;;
28431;SDS011;15664;51.302;7.744;2023-02-01T14:13:26;21.83;;;7.63;;
28431;SDS011;15664;51.302;7.744;2023-02-01T14:16:16;15.02;;;5.05;;
28431;SDS011;15664;51.302;7.744;2023-02-01T14:21:28;18.45;;;7.43;;
28431;SDS011;15664;51.302;7.744;2023-02-01T14:24:00;32.40;;;5.53;;
28431;SDS011;15664;51.302;7.744;2023-02-01T14:29:01;13.80;;;3.83;;
28431;SDS011;15664;51.302;7.744;2023-02-01T14:31:52;17.92;;;5.10;;
28431;SDS011;15664;51.302;7.744;2023-02-01T14:37:58;12.57;;;4.13;;
28431;SDS011;15664;51.302;7.744;2023-02-01T14:40:03;8.27;;;3.85;;
28431;SDS011;15664;51.302;7.744;2023-02-01T14:42:50;21.50;;;5.40;;
28431;SDS011;15664;51.302;7.744;2023-02-01T14:47:47;12.45;;;3.95;;
28431;SDS011;15664;51.302;7.744;2023-02-01T14:50:25;15.80;;;4.47;;
28431;SDS011;15664;51.302;7.744;2023-02-01T14:58:44;17.83;;;4.82;;
28431;SDS011;15664;51.302;7.744;2023-02-01T15:04:15;14.73;;;4.13;;
28431;SDS011;15664;51.302;7.744;2023-02-01T15:09:26;11.68;;;3.97;;
28431;SDS011;15664;51.302;7.744;2023-02-01T15:14:31;9.77;;;4.53;;
28431;SDS011;15664;51.302;7.744;2023-02-01T15:16:58;19.70;;;6.63;;
28431;SDS011;15664;51.302;7.744;2023-02-01T15:19:26;13.50;;;3.45;;
28431;SDS011;15664;51.302;7.744;2023-02-01T15:21:55;9.63;;;3.28;;
28431;SDS011;15664;51.302;7.744;2023-02-01T15:26:51;14.02;;;3.97;;
28431;SDS011;15664;51.302;7.744;2023-02-01T15:29:18;10.23;;;3.53;;
28431;SDS011;15664;51.302;7.744;2023-02-01T15:31:49;13.85;;;4.25;;
28431;SDS011;15664;51.302;7.744;2023-02-01T15:34:17;12.05;;;3.45;;
28431;SDS011;15664;51.302;7.744;2023-02-01T15:36:44;16.05;;;2.60;;
28431;SDS011;15664;51.302;7.744;2023-02-01T15:39:14;9.90;;;3.80;;
28431;SDS011;15664;51.302;7.744;2023-02-01T15:41:55;13.27;;;3.90;;
28431;SDS011;15664;51.302;7.744;2023-02-01T15:47:07;8.40;;;3.42;;
28431;SDS011;15664;51.302;7.744;2023-02-01T15:49:39;14.52;;;3.33;;
28431;SDS011;15664;51.302;7.744;2023-02-01T15:52:24;12.67;;;4.23;;
28431;SDS011;15664;51.302;7.744;2023-02-01T15:54:56;15.40;;;4.13;;
28431;SDS011;15664;51.302;7.744;2023-02-01T15:57:32;7.57;;;3.08;;
28431;SDS011;15664;51.302;7.744;2023-02-01T16:00:02;14.47;;;3.93;;
28431;SDS011;15664;51.302;7.744;2023-02-01T16:02:41;20.50;;;4.88;;
28431;SDS011;15664;51.302;7.744;2023-02-01T16:08:13;10.45;;;3.67;;
28431;SDS011;15664;51.302;7.744;2023-02-01T16:10:47;12.68;;;4.03;;
28431;SDS011;15664;51.302;7.744;2023-02-01T16:13:15;21.10;;;5.67;;
28431;SDS011;15664;51.302;7.744;2023-02-01T16:15:41;11.88;;;3.75;;
28431;SDS011;15664;51.302;7.744;2023-02-01T16:18:07;11.07;;;4.03;;
28431;SDS011;15664;51.302;7.744;2023-02-01T16:20:33;16.55;;;3.30;;
28431;SDS011;15664;51.302;7.744;2023-02-01T16:23:00;12.20;;;4.18;;
28431;SDS011;15664;51.302;7.744;2023-02-01T16:25:27;12.47;;;3.50;;
28431;SDS011;15664;51.302;7.744;2023-02-01T16:27:53;14.68;;;3.80;;
28431;SDS011;15664;51.302;7.744;2023-02-01T16:30:18;12.77;;;3.77;;
28431;SDS011;15664;51.302;7.744;2023-02-01T16:32:49;12.75;;;3.83;;
28431;SDS011;15664;51.302;7.744;2023-02-01T16:35:24;14.85;;;3.78;;
28431;SDS011;15664;51.302;7.744;2023-02-01T16:37:53;13.40;;;4.18;;
28431;SDS011;15664;51.302;7.744;2023-02-01T16:40:19;12.90;;;4.27;;
28431;SDS011;15664;51.302;7.744;2023-02-01T16:42:47;13.18;;;3.95;;
28431;SDS011;15664;51.302;7.744;2023-02-01T16:45:15;14.43;;;3.20;;
28431;SDS011;15664;51.302;7.744;2023-02-01T16:47:42;8.17;;;3.50;;
28431;SDS011;15664;51.302;7.744;2023-02-01T16:50:23;9.48;;;3.00;;
28431;SDS011;15664;51.302;7.744;2023-02-01T16:52:50;10.68;;;4.10;;
28431;SDS011;15664;51.302;7.744;2023-02-01T16:55:17;12.67;;;4.43;;
28431;SDS011;15664;51.302;7.744;2023-02-01T16:57:43;15.70;;;3.78;;
28431;SDS011;15664;51.302;7.744;2023-02-01T17:00:10;15.68;;;3.90;;